sensor_id;sensor_type;location;lat;lon;timestamp;P1;durP1;ratioP1;P2;durP2;ratioP2
75450;SDS011;64029;48.244;9.188;2024-03-02T00:00:55;23.50;;;14.23;;
75450;SDS011;64029;48.244;9.188;2024-03-02T00:03:22;24.80;;;14.90;;
75450;SDS011;64029;48.244;9.188;2024-03-02T00:05:50;23.93;;;15.10;;
75450;SDS011;64029;48.244;9.188;2024-03-02T00:08:31;29.63;;;16.60;;
75450;SDS011;64029;48.244;9.188;2024-03-02T00:10:59;24.10;;;15.00;;
75450;SDS011;64029;48.244;9.188;2024-03-02T00:13:28;33.50;;;16.87;;
75450;SDS011;64029;48.244;9.188;2024-03-02T00:15:56;26.27;;;14.67;;
75450;SDS011;64029;48.244;9.188;2024-03-02T00:18:25;36.17;;;18.70;;
75450;SDS011;64029;48.244;9.188;2024-03-02T00:20:53;33.57;;;17.93;;
75450;SDS011;64029;48.244;9.188;2024-03-02T00:23:22;28.53;;;16.50;;
75450;SDS011;64029;48.244;9.188;2024-03-02T00:25:51;27.93;;;15.97;;
75450;SDS011;64029;48.244;9.188;2024-03-02T00:28:20;26.00;;;14.97;;
75450;SDS011;64029;48.244;9.188;2024-03-02T00:30:57;27.10;;;15.37;;
75450;SDS011;64029;48.244;9.188;2024-03-02T00:33:32;24.90;;;14.83;;
75450;SDS011;64029;48.244;9.188;2024-03-02T00:36:01;24.43;;;14.20;;
75450;SDS011;64029;48.244;9.188;2024-03-02T00:38:29;24.23;;;15.23;;
75450;SDS011;64029;48.244;9.188;2024-03-02T00:40:58;29.00;;;16.47;;
75450;SDS011;64029;48.244;9.188;2024-03-02T00:43:38;24.90;;;14.90;;
75450;SDS011;64029;48.244;9.188;2024-03-02T00:46:09;24.80;;;15.63;;
75450;SDS011;64029;48.244;9.188;2024-03-02T00:48:38;29.03;;;14.70;;
75450;SDS011;64029;48.244;9.188;2024-03-02T00:51:05;27.43;;;15.37;;
75450;SDS011;64029;48.244;9.188;2024-03-02T00:53:34;27.67;;;16.43;;
75450;SDS011;64029;48.244;9.188;2024-03-02T00:56:01;26.50;;;15.20;;
75450;SDS011;64029;48.244;9.188;2024-03-02T00:58:28;29.93;;;16.70;;
75450;SDS011;64029;48.244;9.188;2024-03-02T01:00:55;31.17;;;15.23;;
75450;SDS011;64029;48.244;9.188;2024-03-02T01:03:22;27.03;;;14.63;;
75450;SDS011;64029;48.244;9.188;2024-03-02T01:05:49;28.20;;;15.17;;
75450;SDS011;64029;48.244;9.188;2024-03-02T01:08:16;25.83;;;15.10;;
75450;SDS011;64029;48.244;9.188;2024-03-02T01:10:44;32.53;;;15.93;;
75450;SDS011;64029;48.244;9.188;2024-03-02T01:13:12;27.53;;;15.13;;
75450;SDS011;64029;48.244;9.188;2024-03-02T01:15:39;26.07;;;16.23;;
75450;SDS011;64029;48.244;9.188;2024-03-02T01:18:06;27.50;;;14.47;;
75450;SDS011;64029;48.244;9.188;2024-03-02T01:20:33;26.20;;;14.20;;
75450;SDS011;64029;48.244;9.188;2024-03-02T01:22:59;26.63;;;15.23;;
75450;SDS011;64029;48.244;9.188;2024-03-02T01:25:26;20.87;;;13.40;;
75450;SDS011;64029;48.244;9.188;2024-03-02T01:27:55;24.73;;;14.20;;
75450;SDS011;64029;48.244;9.188;2024-03-02T01:30:21;23.20;;;13.57;;
75450;SDS011;64029;48.244;9.188;2024-03-02T01:32:48;20.43;;;11.83;;
75450;SDS011;64029;48.244;9.188;2024-03-02T01:35:15;22.10;;;13.40;;
75450;SDS011;64029;48.244;9.188;2024-03-02T01:37:42;17.27;;;11.00;;
75450;SDS011;64029;48.244;9.188;2024-03-02T01:40:10;23.87;;;12.10;;
75450;SDS011;64029;48.244;9.188;2024-03-02T01:42:37;17.20;;;10.23;;
75450;SDS011;64029;48.244;9.188;2024-03-02T01:45:07;21.20;;;11.67;;
75450;SDS011;64029;48.244;9.188;2024-03-02T01:47:34;18.87;;;12.10;;
75450;SDS011;64029;48.244;9.188;2024-03-02T01:50:01;20.50;;;12.57;;
75450;SDS011;64029;48.244;9.188;2024-03-02T01:52:28;22.10;;;12.20;;
75450;SDS011;64029;48.244;9.188;2024-03-02T01:54:55;20.27;;;12.20;;
75450;SDS011;64029;48.244;9.188;2024-03-02T01:57:23;21.50;;;11.90;;
75450;SDS011;64029;48.244;9.188;2024-03-02T01:59:50;19.00;;;12.60;;
75450;SDS011;64029;48.244;9.188;2024-03-02T02:02:19;21.00;;;11.23;;
75450;SDS011;64029;48.244;9.188;2024-03-02T02:04:46;19.63;;;12.37;;
75450;SDS011;64029;48.244;9.188;2024-03-02T02:07:13;20.60;;;12.37;;
75450;SDS011;64029;48.244;9.188;2024-03-02T02:09:40;19.20;;;11.53;;
75450;SDS011;64029;48.244;9.188;2024-03-02T02:12:08;18.93;;;11.37;;
75450;SDS011;64029;48.244;9.188;2024-03-02T02:14:36;19.53;;;11.80;;
75450;SDS011;64029;48.244;9.188;2024-03-02T02:17:05;22.07;;;12.60;;
75450;SDS011;64029;48.244;9.188;2024-03-02T02:19:33;20.33;;;11.93;;
75450;SDS011;64029;48.244;9.188;2024-03-02T02:22:01;22.63;;;14.03;;
75450;SDS011;64029;48.244;9.188;2024-03-02T02:24:28;23.10;;;13.20;;
75450;SDS011;64029;48.244;9.188;2024-03-02T02:26:55;23.30;;;13.03;;
75450;SDS011;64029;48.244;9.188;2024-03-02T02:29:22;30.30;;;18.33;;
75450;SDS011;64029;48.244;9.188;2024-03-02T02:31:49;30.73;;;17.87;;
75450;SDS011;64029;48.244;9.188;2024-03-02T02:34:16;23.17;;;15.23;;
75450;SDS011;64029;48.244;9.188;2024-03-02T02:36:43;24.03;;;15.13;;
75450;SDS011;64029;48.244;9.188;2024-03-02T02:39:13;24.03;;;14.40;;
75450;SDS011;64029;48.244;9.188;2024-03-02T02:41:42;28.70;;;14.33;;
75450;SDS011;64029;48.244;9.188;2024-03-02T02:44:09;22.97;;;13.07;;
75450;SDS011;64029;48.244;9.188;2024-03-02T02:46:38;23.93;;;13.33;;
75450;SDS011;64029;48.244;9.188;2024-03-02T02:49:05;22.27;;;12.03;;
75450;SDS011;64029;48.244;9.188;2024-03-02T02:51:32;20.37;;;12.70;;
75450;SDS011;64029;48.244;9.188;2024-03-02T02:53:59;17.97;;;12.07;;
75450;SDS011;64029;48.244;9.188;2024-03-02T02:56:27;21.50;;;12.37;;
75450;SDS011;64029;48.244;9.188;2024-03-02T02:58:54;24.00;;;13.37;;
75450;SDS011;64029;48.244;9.188;2024-03-02T03:01:21;21.50;;;11.57;;
75450;SDS011;64029;48.244;9.188;2024-03-02T03:03:48;20.33;;;12.50;;
75450;SDS011;64029;48.244;9.188;2024-03-02T03:06:15;19.00;;;11.60;;
75450;SDS011;64029;48.244;9.188;2024-03-02T03:08:41;18.60;;;10.80;;
75450;SDS011;64029;48.244;9.188;2024-03-02T03:11:08;21.40;;;12.40;;
75450;SDS011;64029;48.244;9.188;2024-03-02T03:13:37;18.77;;;11.80;;
75450;SDS011;64029;48.244;9.188;2024-03-02T03:16:04;19.47;;;12.33;;
75450;SDS011;64029;48.244;9.188;2024-03-02T03:18:31;19.10;;;12.40;;
75450;SDS011;64029;48.244;9.188;2024-03-02T03:20:57;19.23;;;12.43;;
75450;SDS011;64029;48.244;9.188;2024-03-02T03:23:24;27.77;;;12.87;;
75450;SDS011;64029;48.244;9.188;2024-03-02T03:25:51;20.63;;;12.83;;
75450;SDS011;64029;48.244;9.188;2024-03-02T03:28:18;22.57;;;12.70;;
75450;SDS011;64029;48.244;9.188;2024-03-02T03:30:46;20.03;;;12.20;;
75450;SDS011;64029;48.244;9.188;2024-03-02T03:33:13;18.20;;;11.47;;
75450;SDS011;64029;48.244;9.188;2024-03-02T03:35:40;18.60;;;10.33;;
75450;SDS011;64029;48.244;9.188;2024-03-02T03:38:07;18.13;;;11.20;;
75450;SDS011;64029;48.244;9.188;2024-03-02T03:40:34;19.77;;;12.23;;
75450;SDS011;64029;48.244;9.188;2024-03-02T03:43:00;20.37;;;11.00;;
75450;SDS011;64029;48.244;9.188;2024-03-02T03:45:27;19.67;;;11.33;;
75450;SDS011;64029;48.244;9.188;2024-03-02T03:47:57;20.03;;;10.80;;
75450;SDS011;64029;48.244;9.188;2024-03-02T03:50:23;16.10;;;10.10;;
75450;SDS011;64029;48.244;9.188;2024-03-02T03:52:50;20.70;;;11.67;;
75450;SDS011;64029;48.244;9.188;2024-03-02T03:55:17;15.60;;;10.13;;
75450;SDS011;64029;48.244;9.188;2024-03-02T03:57:44;21.00;;;12.50;;
75450;SDS011;64029;48.244;9.188;2024-03-02T04:00:11;23.90;;;12.80;;
75450;SDS011;64029;48.244;9.188;2024-03-02T04:02:38;18.13;;;11.43;;
75450;SDS011;64029;48.244;9.188;2024-03-02T04:05:07;17.97;;;10.43;;
75450;SDS011;64029;48.244;9.188;2024-03-02T04:07:35;23.43;;;12.10;;
75450;SDS011;64029;48.244;9.188;2024-03-02T04:10:08;20.87;;;11.97;;
75450;SDS011;64029;48.244;9.188;2024-03-02T04:12:35;20.90;;;11.77;;
75450;SDS011;64029;48.244;9.188;2024-03-02T04:15:03;21.27;;;12.30;;
75450;SDS011;64029;48.244;9.188;2024-03-02T04:17:31;19.87;;;11.50;;
75450;SDS011;64029;48.244;9.188;2024-03-02T04:19:59;22.63;;;13.50;;
75450;SDS011;64029;48.244;9.188;2024-03-02T04:22:27;18.23;;;10.97;;
75450;SDS011;64029;48.244;9.188;2024-03-02T04:24:54;18.63;;;12.00;;
75450;SDS011;64029;48.244;9.188;2024-03-02T04:27:21;19.37;;;12.50;;
75450;SDS011;64029;48.244;9.188;2024-03-02T04:29:48;22.03;;;12.70;;
75450;SDS011;64029;48.244;9.188;2024-03-02T04:32:14;23.17;;;12.80;;
75450;SDS011;64029;48.244;9.188;2024-03-02T04:34:41;24.30;;;12.77;;
75450;SDS011;64029;48.244;9.188;2024-03-02T04:37:09;21.30;;;12.70;;
75450;SDS011;64029;48.244;9.188;2024-03-02T04:39:40;24.83;;;13.50;;
75450;SDS011;64029;48.244;9.188;2024-03-02T04:42:07;20.07;;;11.80;;
75450;SDS011;64029;48.244;9.188;2024-03-02T04:44:34;20.20;;;12.60;;
75450;SDS011;64029;48.244;9.188;2024-03-02T04:47:02;20.40;;;12.47;;
75450;SDS011;64029;48.244;9.188;2024-03-02T04:49:29;25.13;;;11.83;;
75450;SDS011;64029;48.244;9.188;2024-03-02T04:51:56;18.40;;;11.30;;
75450;SDS011;64029;48.244;9.188;2024-03-02T04:54:22;24.10;;;13.70;;
75450;SDS011;64029;48.244;9.188;2024-03-02T04:56:51;19.87;;;11.33;;
75450;SDS011;64029;48.244;9.188;2024-03-02T04:59:17;19.67;;;12.43;;
75450;SDS011;64029;48.244;9.188;2024-03-02T05:01:44;19.70;;;12.17;;
75450;SDS011;64029;48.244;9.188;2024-03-02T05:04:12;22.30;;;12.63;;
75450;SDS011;64029;48.244;9.188;2024-03-02T05:06:39;20.87;;;12.03;;
75450;SDS011;64029;48.244;9.188;2024-03-02T05:09:06;21.03;;;12.20;;
75450;SDS011;64029;48.244;9.188;2024-03-02T05:11:33;18.37;;;11.90;;
75450;SDS011;64029;48.244;9.188;2024-03-02T05:14:29;18.30;;;11.80;;
75450;SDS011;64029;48.244;9.188;2024-03-02T05:16:56;17.43;;;11.23;;
75450;SDS011;64029;48.244;9.188;2024-03-02T05:19:22;21.67;;;12.07;;
75450;SDS011;64029;48.244;9.188;2024-03-02T05:21:50;20.30;;;11.93;;
75450;SDS011;64029;48.244;9.188;2024-03-02T05:24:17;23.60;;;12.50;;
75450;SDS011;64029;48.244;9.188;2024-03-02T05:26:44;22.80;;;12.57;;
75450;SDS011;64029;48.244;9.188;2024-03-02T05:29:10;24.43;;;14.07;;
75450;SDS011;64029;48.244;9.188;2024-03-02T05:31:39;21.07;;;12.90;;
75450;SDS011;64029;48.244;9.188;2024-03-02T05:34:05;21.27;;;12.30;;
75450;SDS011;64029;48.244;9.188;2024-03-02T05:36:32;19.87;;;11.73;;
75450;SDS011;64029;48.244;9.188;2024-03-02T05:38:59;22.97;;;13.07;;
75450;SDS011;64029;48.244;9.188;2024-03-02T05:41:26;23.33;;;12.83;;
75450;SDS011;64029;48.244;9.188;2024-03-02T05:43:53;25.90;;;12.73;;
75450;SDS011;64029;48.244;9.188;2024-03-02T05:46:20;22.23;;;12.80;;
75450;SDS011;64029;48.244;9.188;2024-03-02T05:48:48;22.90;;;14.10;;
75450;SDS011;64029;48.244;9.188;2024-03-02T05:51:15;24.90;;;14.97;;
75450;SDS011;64029;48.244;9.188;2024-03-02T05:53:42;19.77;;;11.77;;
75450;SDS011;64029;48.244;9.188;2024-03-02T05:56:09;19.33;;;11.83;;
75450;SDS011;64029;48.244;9.188;2024-03-02T05:58:37;22.30;;;12.70;;
75450;SDS011;64029;48.244;9.188;2024-03-02T06:01:14;22.40;;;12.97;;
75450;SDS011;64029;48.244;9.188;2024-03-02T06:03:43;21.90;;;12.77;;
75450;SDS011;64029;48.244;9.188;2024-03-02T06:06:11;23.40;;;12.90;;
75450;SDS011;64029;48.244;9.188;2024-03-02T06:08:37;23.63;;;13.70;;
75450;SDS011;64029;48.244;9.188;2024-03-02T06:11:04;22.07;;;13.37;;
75450;SDS011;64029;48.244;9.188;2024-03-02T06:13:31;22.70;;;13.67;;
75450;SDS011;64029;48.244;9.188;2024-03-02T06:15:58;22.27;;;13.07;;
75450;SDS011;64029;48.244;9.188;2024-03-02T06:18:25;23.10;;;12.03;;
75450;SDS011;64029;48.244;9.188;2024-03-02T06:20:52;22.17;;;13.37;;
75450;SDS011;64029;48.244;9.188;2024-03-02T06:23:20;25.67;;;13.80;;
75450;SDS011;64029;48.244;9.188;2024-03-02T06:25:47;22.90;;;13.17;;
75450;SDS011;64029;48.244;9.188;2024-03-02T06:28:14;24.50;;;13.93;;
75450;SDS011;64029;48.244;9.188;2024-03-02T06:30:41;24.87;;;14.00;;
75450;SDS011;64029;48.244;9.188;2024-03-02T06:33:08;22.47;;;12.87;;
75450;SDS011;64029;48.244;9.188;2024-03-02T06:35:35;26.20;;;13.50;;
75450;SDS011;64029;48.244;9.188;2024-03-02T06:38:01;22.10;;;13.20;;
75450;SDS011;64029;48.244;9.188;2024-03-02T06:40:30;23.37;;;13.10;;
75450;SDS011;64029;48.244;9.188;2024-03-02T06:42:57;20.90;;;12.70;;
75450;SDS011;64029;48.244;9.188;2024-03-02T06:45:24;18.23;;;10.90;;
75450;SDS011;64029;48.244;9.188;2024-03-02T06:47:50;23.77;;;12.13;;
75450;SDS011;64029;48.244;9.188;2024-03-02T06:50:17;22.43;;;13.03;;
75450;SDS011;64029;48.244;9.188;2024-03-02T06:52:44;21.50;;;12.30;;
75450;SDS011;64029;48.244;9.188;2024-03-02T06:55:11;23.43;;;12.10;;
75450;SDS011;64029;48.244;9.188;2024-03-02T06:57:39;23.47;;;13.37;;
75450;SDS011;64029;48.244;9.188;2024-03-02T07:00:06;21.93;;;12.63;;
75450;SDS011;64029;48.244;9.188;2024-03-02T07:02:34;23.17;;;12.43;;
75450;SDS011;64029;48.244;9.188;2024-03-02T07:05:02;23.57;;;11.47;;
75450;SDS011;64029;48.244;9.188;2024-03-02T07:07:29;23.20;;;13.00;;
75450;SDS011;64029;48.244;9.188;2024-03-02T07:09:56;20.90;;;12.47;;
75450;SDS011;64029;48.244;9.188;2024-03-02T07:12:23;19.50;;;11.90;;
75450;SDS011;64029;48.244;9.188;2024-03-02T07:14:51;23.33;;;12.80;;
75450;SDS011;64029;48.244;9.188;2024-03-02T07:17:36;22.80;;;12.20;;
75450;SDS011;64029;48.244;9.188;2024-03-02T07:20:04;24.33;;;11.30;;
75450;SDS011;64029;48.244;9.188;2024-03-02T07:22:31;19.63;;;12.00;;
75450;SDS011;64029;48.244;9.188;2024-03-02T07:24:59;23.53;;;12.87;;
75450;SDS011;64029;48.244;9.188;2024-03-02T07:27:26;20.60;;;12.20;;
75450;SDS011;64029;48.244;9.188;2024-03-02T07:29:54;18.67;;;11.53;;
75450;SDS011;64029;48.244;9.188;2024-03-02T07:32:21;21.20;;;11.80;;
75450;SDS011;64029;48.244;9.188;2024-03-02T07:34:48;22.13;;;12.40;;
75450;SDS011;64029;48.244;9.188;2024-03-02T07:37:16;18.90;;;12.77;;
75450;SDS011;64029;48.244;9.188;2024-03-02T07:39:43;19.70;;;12.20;;
75450;SDS011;64029;48.244;9.188;2024-03-02T07:42:11;23.53;;;13.17;;
75450;SDS011;64029;48.244;9.188;2024-03-02T07:44:38;21.70;;;13.30;;
75450;SDS011;64029;48.244;9.188;2024-03-02T07:47:06;25.27;;;13.40;;
75450;SDS011;64029;48.244;9.188;2024-03-02T07:49:33;23.43;;;11.60;;
75450;SDS011;64029;48.244;9.188;2024-03-02T07:52:00;22.47;;;12.63;;
75450;SDS011;64029;48.244;9.188;2024-03-02T07:54:27;25.80;;;14.00;;
75450;SDS011;64029;48.244;9.188;2024-03-02T07:56:54;24.37;;;14.53;;
75450;SDS011;64029;48.244;9.188;2024-03-02T07:59:21;22.73;;;12.70;;
75450;SDS011;64029;48.244;9.188;2024-03-02T08:01:48;25.57;;;15.50;;
75450;SDS011;64029;48.244;9.188;2024-03-02T08:04:17;24.30;;;15.07;;
75450;SDS011;64029;48.244;9.188;2024-03-02T08:06:45;28.20;;;12.70;;
75450;SDS011;64029;48.244;9.188;2024-03-02T08:09:12;26.67;;;13.00;;
75450;SDS011;64029;48.244;9.188;2024-03-02T08:11:39;26.70;;;13.93;;
75450;SDS011;64029;48.244;9.188;2024-03-02T08:14:05;24.13;;;13.60;;
75450;SDS011;64029;48.244;9.188;2024-03-02T08:16:32;22.60;;;13.00;;
75450;SDS011;64029;48.244;9.188;2024-03-02T08:18:59;23.60;;;13.73;;
75450;SDS011;64029;48.244;9.188;2024-03-02T08:21:27;27.27;;;15.40;;
75450;SDS011;64029;48.244;9.188;2024-03-02T08:23:55;25.13;;;14.03;;
75450;SDS011;64029;48.244;9.188;2024-03-02T08:26:23;25.30;;;14.47;;
75450;SDS011;64029;48.244;9.188;2024-03-02T08:28:50;25.20;;;14.00;;
75450;SDS011;64029;48.244;9.188;2024-03-02T08:31:17;22.97;;;13.80;;
75450;SDS011;64029;48.244;9.188;2024-03-02T08:33:44;24.13;;;13.63;;
75450;SDS011;64029;48.244;9.188;2024-03-02T08:36:10;26.33;;;13.30;;
75450;SDS011;64029;48.244;9.188;2024-03-02T08:38:39;23.07;;;12.33;;
75450;SDS011;64029;48.244;9.188;2024-03-02T08:41:06;24.83;;;13.90;;
75450;SDS011;64029;48.244;9.188;2024-03-02T08:43:33;34.33;;;15.63;;
75450;SDS011;64029;48.244;9.188;2024-03-02T08:46:00;22.90;;;14.13;;
75450;SDS011;64029;48.244;9.188;2024-03-02T08:48:27;24.53;;;13.27;;
75450;SDS011;64029;48.244;9.188;2024-03-02T08:50:54;23.97;;;12.93;;
75450;SDS011;64029;48.244;9.188;2024-03-02T08:53:21;18.80;;;11.90;;
75450;SDS011;64029;48.244;9.188;2024-03-02T08:55:49;24.97;;;12.80;;
75450;SDS011;64029;48.244;9.188;2024-03-02T08:58:16;22.00;;;13.80;;
75450;SDS011;64029;48.244;9.188;2024-03-02T09:00:43;21.03;;;12.63;;
75450;SDS011;64029;48.244;9.188;2024-03-02T09:03:09;22.90;;;13.30;;
75450;SDS011;64029;48.244;9.188;2024-03-02T09:05:36;20.37;;;12.27;;
75450;SDS011;64029;48.244;9.188;2024-03-02T09:08:04;24.23;;;13.37;;
75450;SDS011;64029;48.244;9.188;2024-03-02T09:10:31;25.33;;;13.10;;
75450;SDS011;64029;48.244;9.188;2024-03-02T09:12:59;23.73;;;13.30;;
75450;SDS011;64029;48.244;9.188;2024-03-02T09:15:26;21.63;;;13.07;;
75450;SDS011;64029;48.244;9.188;2024-03-02T09:17:53;20.93;;;12.53;;
75450;SDS011;64029;48.244;9.188;2024-03-02T09:20:20;23.00;;;12.40;;
75450;SDS011;64029;48.244;9.188;2024-03-02T09:22:46;20.30;;;12.77;;
75450;SDS011;64029;48.244;9.188;2024-03-02T09:25:13;21.27;;;13.17;;
75450;SDS011;64029;48.244;9.188;2024-03-02T09:27:41;21.73;;;12.50;;
75450;SDS011;64029;48.244;9.188;2024-03-02T09:30:09;20.10;;;11.23;;
75450;SDS011;64029;48.244;9.188;2024-03-02T09:32:38;25.80;;;12.10;;
75450;SDS011;64029;48.244;9.188;2024-03-02T09:35:05;20.00;;;12.43;;
75450;SDS011;64029;48.244;9.188;2024-03-02T09:37:33;19.63;;;11.37;;
75450;SDS011;64029;48.244;9.188;2024-03-02T09:40:00;17.37;;;11.27;;
75450;SDS011;64029;48.244;9.188;2024-03-02T09:42:27;18.43;;;11.20;;
75450;SDS011;64029;48.244;9.188;2024-03-02T09:44:55;15.90;;;10.03;;
75450;SDS011;64029;48.244;9.188;2024-03-02T09:47:24;15.47;;;9.70;;
75450;SDS011;64029;48.244;9.188;2024-03-02T09:49:51;21.70;;;12.20;;
75450;SDS011;64029;48.244;9.188;2024-03-02T09:52:18;16.40;;;9.47;;
75450;SDS011;64029;48.244;9.188;2024-03-02T09:54:47;16.57;;;10.40;;
75450;SDS011;64029;48.244;9.188;2024-03-02T09:57:14;19.27;;;10.00;;
75450;SDS011;64029;48.244;9.188;2024-03-02T09:59:41;14.80;;;9.90;;
75450;SDS011;64029;48.244;9.188;2024-03-02T10:02:08;16.03;;;10.30;;
75450;SDS011;64029;48.244;9.188;2024-03-02T10:04:36;17.20;;;10.53;;
75450;SDS011;64029;48.244;9.188;2024-03-02T10:07:09;17.20;;;9.10;;
75450;SDS011;64029;48.244;9.188;2024-03-02T10:09:41;15.27;;;8.73;;
75450;SDS011;64029;48.244;9.188;2024-03-02T10:12:09;15.27;;;8.40;;
75450;SDS011;64029;48.244;9.188;2024-03-02T10:14:37;15.67;;;9.63;;
75450;SDS011;64029;48.244;9.188;2024-03-02T10:17:05;14.73;;;8.23;;
75450;SDS011;64029;48.244;9.188;2024-03-02T10:19:33;13.17;;;8.60;;
75450;SDS011;64029;48.244;9.188;2024-03-02T10:22:02;11.27;;;7.70;;
75450;SDS011;64029;48.244;9.188;2024-03-02T10:24:34;12.53;;;7.90;;
75450;SDS011;64029;48.244;9.188;2024-03-02T10:27:06;10.50;;;7.23;;
75450;SDS011;64029;48.244;9.188;2024-03-02T10:29:38;16.13;;;7.20;;
75450;SDS011;64029;48.244;9.188;2024-03-02T10:32:12;11.83;;;6.27;;
75450;SDS011;64029;48.244;9.188;2024-03-02T10:34:41;12.20;;;6.93;;
75450;SDS011;64029;48.244;9.188;2024-03-02T10:37:09;12.93;;;5.30;;
75450;SDS011;64029;48.244;9.188;2024-03-02T10:39:39;7.73;;;6.00;;
75450;SDS011;64029;48.244;9.188;2024-03-02T10:42:08;9.43;;;5.47;;
75450;SDS011;64029;48.244;9.188;2024-03-02T10:44:35;6.93;;;5.20;;
75450;SDS011;64029;48.244;9.188;2024-03-02T10:47:03;8.93;;;4.50;;
75450;SDS011;64029;48.244;9.188;2024-03-02T10:49:34;7.27;;;5.27;;
75450;SDS011;64029;48.244;9.188;2024-03-02T10:52:02;6.57;;;4.50;;
75450;SDS011;64029;48.244;9.188;2024-03-02T10:54:30;5.13;;;4.07;;
75450;SDS011;64029;48.244;9.188;2024-03-02T10:57:01;8.90;;;5.37;;
75450;SDS011;64029;48.244;9.188;2024-03-02T10:59:33;7.30;;;5.40;;
75450;SDS011;64029;48.244;9.188;2024-03-02T11:02:02;8.07;;;5.37;;
75450;SDS011;64029;48.244;9.188;2024-03-02T11:04:33;7.67;;;4.73;;
75450;SDS011;64029;48.244;9.188;2024-03-02T11:07:13;8.67;;;4.57;;
75450;SDS011;64029;48.244;9.188;2024-03-02T11:09:45;9.60;;;4.57;;
75450;SDS011;64029;48.244;9.188;2024-03-02T11:12:35;5.13;;;3.67;;
75450;SDS011;64029;48.244;9.188;2024-03-02T11:15:10;11.70;;;4.17;;
75450;SDS011;64029;48.244;9.188;2024-03-02T11:17:38;7.37;;;4.80;;
75450;SDS011;64029;48.244;9.188;2024-03-02T11:20:07;9.23;;;3.83;;
75450;SDS011;64029;48.244;9.188;2024-03-02T11:22:36;5.40;;;3.53;;
75450;SDS011;64029;48.244;9.188;2024-03-02T11:25:04;6.00;;;3.77;;
75450;SDS011;64029;48.244;9.188;2024-03-02T11:28:04;5.20;;;3.37;;
75450;SDS011;64029;48.244;9.188;2024-03-02T11:30:48;6.80;;;3.70;;
75450;SDS011;64029;48.244;9.188;2024-03-02T11:33:26;7.33;;;4.13;;
75450;SDS011;64029;48.244;9.188;2024-03-02T11:35:56;6.37;;;3.50;;
75450;SDS011;64029;48.244;9.188;2024-03-02T11:38:31;5.50;;;3.40;;
75450;SDS011;64029;48.244;9.188;2024-03-02T11:40:59;5.23;;;2.67;;
75450;SDS011;64029;48.244;9.188;2024-03-02T11:43:27;3.47;;;2.80;;
75450;SDS011;64029;48.244;9.188;2024-03-02T11:45:57;2.80;;;2.53;;
75450;SDS011;64029;48.244;9.188;2024-03-02T11:48:25;4.10;;;2.90;;
75450;SDS011;64029;48.244;9.188;2024-03-02T11:50:52;3.37;;;2.50;;
75450;SDS011;64029;48.244;9.188;2024-03-02T11:53:23;3.23;;;2.47;;
75450;SDS011;64029;48.244;9.188;2024-03-02T11:55:58;3.47;;;2.60;;
75450;SDS011;64029;48.244;9.188;2024-03-02T11:58:26;4.93;;;2.33;;
75450;SDS011;64029;48.244;9.188;2024-03-02T12:00:54;2.93;;;2.60;;
75450;SDS011;64029;48.244;9.188;2024-03-02T12:03:23;4.00;;;2.47;;
75450;SDS011;64029;48.244;9.188;2024-03-02T12:05:52;3.63;;;2.50;;
75450;SDS011;64029;48.244;9.188;2024-03-02T12:08:20;2.13;;;1.93;;
75450;SDS011;64029;48.244;9.188;2024-03-02T12:10:59;1.90;;;1.70;;
75450;SDS011;64029;48.244;9.188;2024-03-02T12:13:26;3.03;;;1.73;;
75450;SDS011;64029;48.244;9.188;2024-03-02T12:15:56;2.20;;;1.70;;
75450;SDS011;64029;48.244;9.188;2024-03-02T12:18:41;2.43;;;1.40;;
75450;SDS011;64029;48.244;9.188;2024-03-02T12:21:29;2.27;;;1.90;;
75450;SDS011;64029;48.244;9.188;2024-03-02T12:23:58;2.10;;;1.50;;
75450;SDS011;64029;48.244;9.188;2024-03-02T12:26:28;2.43;;;1.40;;
75450;SDS011;64029;48.244;9.188;2024-03-02T12:29:01;1.87;;;1.33;;
75450;SDS011;64029;48.244;9.188;2024-03-02T12:31:38;2.30;;;1.30;;
75450;SDS011;64029;48.244;9.188;2024-03-02T12:34:07;1.97;;;1.50;;
75450;SDS011;64029;48.244;9.188;2024-03-02T12:36:38;1.43;;;1.33;;
75450;SDS011;64029;48.244;9.188;2024-03-02T12:39:06;1.50;;;1.10;;
75450;SDS011;64029;48.244;9.188;2024-03-02T12:41:47;1.50;;;1.10;;
75450;SDS011;64029;48.244;9.188;2024-03-02T12:44:31;1.87;;;1.30;;
75450;SDS011;64029;48.244;9.188;2024-03-02T12:50:18;2.23;;;1.27;;
75450;SDS011;64029;48.244;9.188;2024-03-02T12:53:13;1.50;;;1.20;;
75450;SDS011;64029;48.244;9.188;2024-03-02T13:02:18;2.60;;;1.60;;
75450;SDS011;64029;48.244;9.188;2024-03-02T13:05:13;2.07;;;1.20;;
75450;SDS011;64029;48.244;9.188;2024-03-02T13:10:20;2.13;;;1.50;;
75450;SDS011;64029;48.244;9.188;2024-03-02T13:12:48;1.70;;;1.30;;
75450;SDS011;64029;48.244;9.188;2024-03-02T13:15:16;2.13;;;1.40;;
75450;SDS011;64029;48.244;9.188;2024-03-02T13:17:44;1.73;;;1.30;;
75450;SDS011;64029;48.244;9.188;2024-03-02T13:20:11;1.33;;;1.20;;
75450;SDS011;64029;48.244;9.188;2024-03-02T13:22:39;1.60;;;1.10;;
75450;SDS011;64029;48.244;9.188;2024-03-02T13:25:06;1.93;;;1.20;;
75450;SDS011;64029;48.244;9.188;2024-03-02T13:27:35;2.47;;;1.30;;
75450;SDS011;64029;48.244;9.188;2024-03-02T13:30:02;1.37;;;1.17;;
75450;SDS011;64029;48.244;9.188;2024-03-02T13:32:35;1.63;;;1.10;;
75450;SDS011;64029;48.244;9.188;2024-03-02T13:35:02;1.60;;;1.20;;
75450;SDS011;64029;48.244;9.188;2024-03-02T13:37:29;1.20;;;1.03;;
75450;SDS011;64029;48.244;9.188;2024-03-02T13:39:56;1.50;;;1.30;;
75450;SDS011;64029;48.244;9.188;2024-03-02T13:42:23;1.30;;;1.20;;
75450;SDS011;64029;48.244;9.188;2024-03-02T13:44:50;1.63;;;1.10;;
75450;SDS011;64029;48.244;9.188;2024-03-02T13:47:17;1.40;;;1.20;;
75450;SDS011;64029;48.244;9.188;2024-03-02T13:49:46;1.27;;;1.00;;
75450;SDS011;64029;48.244;9.188;2024-03-02T13:52:14;1.20;;;1.10;;
75450;SDS011;64029;48.244;9.188;2024-03-02T13:54:42;1.10;;;0.90;;
75450;SDS011;64029;48.244;9.188;2024-03-02T13:57:10;1.30;;;1.20;;
75450;SDS011;64029;48.244;9.188;2024-03-02T13:59:37;1.00;;;0.90;;
75450;SDS011;64029;48.244;9.188;2024-03-02T14:02:06;1.10;;;0.97;;
75450;SDS011;64029;48.244;9.188;2024-03-02T14:04:33;0.80;;;0.77;;
75450;SDS011;64029;48.244;9.188;2024-03-02T14:07:02;1.20;;;0.70;;
75450;SDS011;64029;48.244;9.188;2024-03-02T14:09:32;2.13;;;0.70;;
75450;SDS011;64029;48.244;9.188;2024-03-02T14:11:59;0.90;;;0.70;;
75450;SDS011;64029;48.244;9.188;2024-03-02T14:14:26;0.90;;;0.60;;
75450;SDS011;64029;48.244;9.188;2024-03-02T14:16:53;3.63;;;0.93;;
75450;SDS011;64029;48.244;9.188;2024-03-02T14:19:21;1.10;;;0.93;;
75450;SDS011;64029;48.244;9.188;2024-03-02T14:21:48;1.57;;;0.87;;
75450;SDS011;64029;48.244;9.188;2024-03-02T14:24:16;2.00;;;0.90;;
75450;SDS011;64029;48.244;9.188;2024-03-02T14:26:44;1.70;;;1.00;;
75450;SDS011;64029;48.244;9.188;2024-03-02T14:29:11;1.30;;;1.20;;
75450;SDS011;64029;48.244;9.188;2024-03-02T14:31:38;1.40;;;1.20;;
75450;SDS011;64029;48.244;9.188;2024-03-02T14:34:05;1.97;;;1.20;;
75450;SDS011;64029;48.244;9.188;2024-03-02T14:36:32;1.37;;;1.23;;
75450;SDS011;64029;48.244;9.188;2024-03-02T14:38:59;2.30;;;1.50;;
75450;SDS011;64029;48.244;9.188;2024-03-02T14:41:27;2.87;;;1.53;;
75450;SDS011;64029;48.244;9.188;2024-03-02T14:43:54;2.20;;;1.90;;
75450;SDS011;64029;48.244;9.188;2024-03-02T14:46:21;1.80;;;1.50;;
75450;SDS011;64029;48.244;9.188;2024-03-02T14:48:48;3.27;;;1.80;;